createdAt,value
2023-09-13T00:00:49.601Z,21.92
2023-09-13T00:03:23.325Z,21.40
2023-09-13T00:05:56.352Z,21.27
2023-09-13T00:08:29.330Z,21.02
2023-09-13T00:11:03.128Z,21.60
2023-09-13T00:13:36.308Z,20.83
2023-09-13T00:16:04.457Z,21.30
2023-09-13T00:18:37.345Z,21.30
2023-09-13T00:21:04.138Z,22.35
2023-09-13T00:23:37.305Z,20.77
2023-09-13T00:26:06.545Z,20.30
2023-09-13T00:28:40.319Z,19.83
2023-09-13T00:31:10.464Z,21.05
2023-09-13T00:33:44.501Z,21.17
2023-09-13T00:36:11.529Z,20.20
2023-09-13T00:38:44.355Z,22.60
2023-09-13T00:41:11.139Z,20.65
2023-09-13T00:43:44.526Z,19.83
2023-09-13T00:46:11.885Z,21.85
2023-09-13T00:48:45.434Z,23.02
2023-09-13T00:51:19.294Z,22.27
2023-09-13T00:54:06.402Z,22.90
2023-09-13T00:56:34.721Z,21.00
2023-09-13T00:59:09.315Z,21.73
2023-09-13T01:01:43.490Z,23.35
2023-09-13T01:04:10.494Z,22.23
2023-09-13T01:06:45.424Z,23.38
2023-09-13T01:09:15.300Z,23.17
2023-09-13T01:11:48.332Z,23.23
2023-09-13T01:14:14.991Z,21.52
2023-09-13T01:16:58.468Z,21.25
2023-09-13T01:19:52.356Z,22.75
2023-09-13T01:22:32.361Z,22.23
2023-09-13T01:25:17.493Z,22.23
2023-09-13T01:27:57.357Z,21.55
2023-09-13T01:30:26.248Z,22.65
2023-09-13T01:33:00.404Z,23.48
2023-09-13T01:35:27.143Z,22.45
2023-09-13T01:38:00.387Z,22.75
2023-09-13T01:40:30.918Z,20.27
2023-09-13T01:43:07.422Z,21.13
2023-09-13T01:45:42.426Z,21.58
2023-09-13T01:48:18.407Z,22.80
2023-09-13T01:50:45.869Z,23.25
2023-09-13T01:53:12.818Z,23.10
2023-09-13T01:55:46.410Z,23.48
2023-09-13T01:58:13.186Z,22.60
2023-09-13T02:00:47.531Z,22.20
2023-09-13T02:03:14.734Z,23.10
2023-09-13T02:05:48.374Z,21.70
2023-09-13T02:08:15.056Z,23.85
2023-09-13T02:10:48.418Z,24.63
2023-09-13T02:13:15.250Z,23.23
2023-09-13T02:15:49.532Z,24.02
2023-09-13T02:18:16.617Z,25.02
2023-09-13T02:20:43.642Z,22.55
2023-09-13T02:23:16.448Z,29.10
2023-09-13T02:25:53.372Z,25.25
2023-09-13T02:28:26.488Z,24.48
2023-09-13T02:30:59.536Z,25.90
2023-09-13T02:33:32.454Z,23.80
2023-09-13T02:35:59.190Z,24.05
2023-09-13T02:38:32.450Z,23.67
2023-09-13T02:40:59.133Z,25.83
2023-09-13T02:43:32.416Z,23.88
2023-09-13T02:45:59.116Z,26.38
2023-09-13T02:48:33.376Z,24.92
2023-09-13T02:51:06.485Z,25.67
2023-09-13T02:53:33.221Z,25.20
2023-09-13T02:56:16.460Z,25.63
2023-09-13T02:58:43.219Z,26.85
2023-09-13T03:01:18.558Z,29.15
2023-09-13T03:03:51.558Z,27.45
2023-09-13T03:06:18.367Z,25.27
2023-09-13T03:08:51.439Z,26.13
2023-09-13T03:11:26.494Z,21.70
2023-09-13T03:13:53.377Z,26.27
2023-09-13T03:16:29.513Z,25.00
2023-09-13T03:18:56.690Z,25.77
2023-09-13T03:21:30.411Z,26.33
2023-09-13T03:23:57.123Z,23.42
2023-09-13T03:26:32.433Z,25.25
2023-09-13T03:28:59.116Z,24.63
2023-09-13T03:31:34.583Z,26.92
2023-09-13T03:34:01.378Z,24.73
2023-09-13T03:36:35.431Z,22.95
2023-09-13T03:39:02.446Z,19.88
2023-09-13T03:41:35.501Z,23.88
2023-09-13T03:44:03.767Z,25.42
2023-09-13T03:46:37.514Z,25.05
2023-09-13T03:49:11.606Z,23.38
2023-09-13T03:51:38.435Z,20.98
2023-09-13T03:54:11.454Z,22.83
2023-09-13T03:56:44.656Z,26.38
2023-09-13T03:59:18.475Z,25.13
2023-09-13T04:01:45.962Z,25.20
2023-09-13T04:04:19.530Z,25.65
2023-09-13T04:06:46.613Z,26.67
2023-09-13T04:09:20.449Z,24.38
2023-09-13T04:11:47.196Z,27.60
2023-09-13T04:14:20.494Z,24.55
2023-09-13T04:16:47.326Z,23.52
2023-09-13T04:19:20.495Z,25.80
2023-09-13T04:21:53.471Z,23.35
2023-09-13T04:24:26.527Z,24.10
2023-09-13T04:26:59.490Z,24.83
2023-09-13T04:29:26.347Z,26.60
2023-09-13T04:31:59.519Z,22.77
2023-09-13T04:34:26.997Z,28.00
2023-09-13T04:37:02.509Z,26.45
2023-09-13T04:39:30.078Z,24.45
2023-09-13T04:42:03.521Z,26.70
2023-09-13T04:44:30.285Z,24.98
2023-09-13T04:47:05.574Z,23.38
2023-09-13T04:49:38.472Z,25.58
2023-09-13T04:52:14.607Z,25.35
2023-09-13T04:54:47.771Z,25.33
2023-09-13T04:57:21.445Z,23.75
2023-09-13T04:59:58.505Z,24.25
2023-09-13T05:02:25.397Z,25.30
2023-09-13T05:04:58.553Z,26.05
2023-09-13T05:07:25.436Z,22.65
2023-09-13T05:09:58.499Z,25.90
2023-09-13T05:12:25.164Z,22.40
2023-09-13T05:14:58.511Z,21.52
2023-09-13T05:17:25.270Z,21.38
2023-09-13T05:19:58.481Z,26.20
2023-09-13T05:22:25.304Z,24.23
2023-09-13T05:24:58.507Z,25.27
2023-09-13T05:27:25.197Z,26.48
2023-09-13T05:29:53.452Z,29.38
2023-09-13T05:32:26.605Z,29.85
2023-09-13T05:34:53.265Z,30.55
2023-09-13T05:37:26.628Z,31.70
2023-09-13T05:39:53.394Z,31.42
2023-09-13T05:42:26.575Z,30.27
2023-09-13T05:44:55.146Z,29.83
2023-09-13T05:47:28.566Z,32.60
2023-09-13T05:49:55.333Z,29.92
2023-09-13T05:52:28.577Z,32.10
2023-09-13T05:55:15.556Z,29.85
2023-09-13T05:57:48.560Z,31.95
2023-09-13T06:00:22.543Z,31.38
2023-09-13T06:02:55.535Z,27.38
2023-09-13T06:05:28.550Z,34.05
2023-09-13T06:07:55.307Z,31.08
2023-09-13T06:10:28.609Z,26.05
2023-09-13T06:12:55.800Z,28.70
2023-09-13T06:15:29.516Z,24.17
2023-09-13T06:17:56.537Z,24.77
2023-09-13T06:20:30.545Z,25.75
2023-09-13T06:23:03.527Z,20.23
2023-09-13T06:25:36.591Z,19.25
2023-09-13T06:28:05.499Z,20.35
2023-09-13T06:30:53.251Z,17.83
2023-09-13T06:33:41.187Z,14.88
2023-09-13T06:36:17.214Z,15.63
2023-09-13T06:38:44.793Z,17.13
2023-09-13T06:41:20.222Z,13.65
2023-09-13T06:44:08.370Z,13.77
2023-09-13T06:46:51.553Z,14.80
2023-09-13T06:49:23.812Z,14.77
2023-09-13T06:52:06.588Z,17.13
2023-09-13T06:54:46.650Z,15.70
2023-09-13T07:00:04.540Z,19.45
2023-09-13T07:02:36.792Z,19.77
2023-09-13T07:07:42.779Z,5.72
2023-09-13T07:10:16.705Z,2.83
2023-09-13T07:12:44.045Z,1.70
2023-09-13T07:15:18.907Z,1.05
2023-09-13T07:17:46.505Z,1.63
2023-09-13T07:20:21.082Z,1.17
2023-09-13T07:22:48.964Z,1.63
2023-09-13T07:25:24.883Z,1.75
2023-09-13T07:27:58.834Z,4.40
2023-09-13T07:30:35.751Z,3.40
2023-09-13T07:33:03.299Z,2.67
2023-09-13T07:35:37.720Z,3.15
2023-09-13T07:38:05.256Z,2.13
2023-09-13T07:40:39.848Z,4.20
2023-09-13T07:46:02.752Z,2.65
2023-09-13T07:48:56.704Z,2.80
2023-09-13T08:03:33.964Z,1.90
2023-09-13T08:06:44.860Z,2.08
2023-09-13T08:13:34.673Z,4.03
2023-09-13T08:16:52.001Z,2.67
2023-09-13T08:19:25.662Z,5.13
2023-09-13T08:21:52.977Z,2.65
2023-09-13T08:24:26.773Z,4.20
2023-09-13T08:26:54.113Z,4.28
2023-09-13T08:29:27.674Z,3.53
2023-09-13T08:32:01.685Z,3.20
2023-09-13T08:34:31.667Z,3.00
2023-09-13T08:39:49.754Z,4.97
2023-09-13T08:42:23.737Z,2.60
2023-09-13T08:44:59.718Z,3.95
2023-09-13T08:47:46.599Z,4.47
2023-09-13T08:50:26.157Z,3.10
2023-09-13T08:53:01.758Z,3.67
2023-09-13T08:55:37.456Z,3.50
2023-09-13T08:58:11.809Z,3.67
2023-09-13T09:00:49.742Z,3.13
2023-09-13T09:03:25.953Z,3.85
2023-09-13T09:05:53.259Z,3.92
2023-09-13T09:08:27.671Z,2.15
2023-09-13T09:11:04.683Z,3.10
2023-09-13T09:13:39.656Z,3.30
2023-09-13T09:16:08.120Z,4.60
2023-09-13T09:18:45.911Z,3.00
2023-09-13T09:21:13.989Z,2.58
2023-09-13T09:23:48.663Z,2.58
2023-09-13T09:26:21.879Z,3.05
2023-09-13T09:28:51.243Z,2.55
2023-09-13T09:31:27.679Z,3.15
2023-09-13T09:34:04.578Z,1.60
2023-09-13T09:36:42.753Z,2.75
2023-09-13T09:39:10.112Z,3.75
2023-09-13T09:41:44.648Z,2.40
2023-09-13T09:44:13.406Z,3.35
2023-09-13T09:46:47.890Z,2.58
2023-09-13T09:49:15.235Z,1.45
2023-09-13T09:51:48.648Z,2.38
2023-09-13T09:54:18.677Z,2.40
2023-09-13T09:56:51.671Z,1.60
2023-09-13T09:59:36.016Z,2.05
2023-09-13T10:02:10.864Z,3.35
2023-09-13T10:04:52.979Z,2.55
2023-09-13T10:07:26.736Z,2.47
2023-09-13T10:10:07.806Z,1.80
2023-09-13T10:12:45.623Z,2.58
2023-09-13T10:15:19.870Z,1.73
2023-09-13T10:17:50.048Z,2.78
2023-09-13T10:20:25.838Z,1.70
2023-09-13T10:23:02.842Z,2.92
2023-09-13T10:25:41.750Z,4.07
2023-09-13T10:28:11.080Z,2.80
2023-09-13T10:30:47.867Z,2.50
2023-09-13T10:33:16.490Z,1.95
2023-09-13T10:38:39.727Z,2.53
2023-09-13T10:44:12.788Z,3.88
2023-09-13T10:46:47.859Z,2.22
2023-09-13T10:49:14.962Z,3.13
2023-09-13T10:51:49.781Z,3.38
2023-09-13T10:54:22.103Z,3.13
2023-09-13T11:03:08.786Z,5.65
2023-09-13T11:05:36.012Z,4.60
2023-09-13T11:11:53.759Z,3.53
2023-09-13T11:14:35.730Z,4.03
2023-09-13T11:17:46.928Z,3.83
2023-09-13T11:20:41.718Z,4.85
2023-09-13T11:29:17.995Z,4.47
2023-09-13T11:32:01.274Z,3.92
2023-09-13T11:37:18.572Z,4.32
2023-09-13T11:44:02.292Z,4.22
2023-09-13T11:52:28.121Z,4.38
2023-09-13T11:58:00.861Z,3.05
2023-09-13T12:00:32.089Z,2.40
2023-09-13T12:06:36.939Z,5.20
2023-09-13T12:09:48.629Z,4.72
2023-09-13T12:15:04.933Z,4.90
2023-09-13T12:20:34.464Z,3.65
2023-09-13T12:23:07.802Z,5.50
2023-09-13T12:25:40.862Z,5.03
2023-09-13T12:30:56.906Z,3.45
2023-09-13T12:50:18.449Z,4.70
2023-09-13T12:52:55.930Z,5.65
2023-09-13T12:55:38.833Z,5.53
2023-09-13T13:03:43.999Z,4.25
2023-09-13T13:16:43.746Z,4.40
2023-09-13T13:28:13.893Z,5.50
2023-09-13T13:30:43.347Z,4.22
2023-09-13T13:33:25.026Z,5.25
2023-09-13T13:35:52.752Z,4.85
2023-09-13T13:48:49.926Z,3.60
2023-09-13T13:54:07.726Z,3.40
2023-09-13T13:56:42.995Z,3.72
2023-09-13T13:59:41.869Z,3.42
2023-09-13T14:09:22.939Z,5.72
2023-09-13T14:14:49.045Z,4.90
2023-09-13T14:25:30.214Z,3.55
2023-09-13T14:42:03.857Z,2.95
2023-09-13T15:14:17.933Z,6.63
2023-09-13T15:16:59.022Z,3.72
2023-09-13T15:23:37.982Z,4.75
2023-09-13T15:26:07.525Z,3.88
2023-09-13T15:39:37.038Z,4.47
2023-09-13T15:42:04.346Z,3.53
2023-09-13T15:54:43.079Z,4.18
2023-09-13T16:53:31.976Z,3.17
2023-09-13T16:56:20.883Z,5.95
2023-09-13T16:58:57.937Z,5.00
2023-09-13T17:01:28.474Z,5.63
2023-09-13T17:06:50.203Z,4.40
2023-09-13T17:09:30.095Z,5.03
2023-09-13T17:12:24.514Z,5.70
2023-09-13T17:14:53.182Z,4.50
2023-09-13T17:17:30.577Z,4.78
2023-09-13T17:19:57.826Z,5.35
2023-09-13T17:22:31.262Z,4.75
2023-09-13T17:25:01.347Z,5.28
2023-09-13T17:27:35.074Z,6.80
2023-09-13T17:30:02.066Z,3.92
2023-09-13T17:32:36.244Z,5.50
2023-09-13T17:35:03.317Z,6.13
2023-09-13T17:37:40.026Z,6.22
2023-09-13T17:40:20.148Z,6.10
2023-09-13T17:42:49.019Z,4.93
2023-09-13T17:45:30.007Z,5.68
2023-09-13T17:48:08.093Z,8.45
2023-09-13T17:50:38.784Z,6.05
2023-09-13T17:53:13.929Z,6.53
2023-09-13T17:55:41.567Z,5.90
2023-09-13T17:58:08.448Z,2.30
2023-09-13T18:00:46.792Z,3.65
2023-09-13T18:06:11.036Z,7.53
2023-09-13T18:08:47.307Z,3.83
2023-09-13T18:11:20.381Z,6.20
2023-09-13T18:14:02.571Z,5.15
2023-09-13T18:16:33.147Z,5.97
2023-09-13T18:19:19.724Z,6.18
2023-09-13T18:21:47.011Z,3.83
2023-09-13T18:24:36.646Z,7.47
2023-09-13T18:27:11.108Z,5.40
2023-09-13T18:29:47.288Z,3.50
2023-09-13T18:32:24.135Z,4.22
2023-09-13T18:34:51.883Z,5.63
2023-09-13T18:37:29.078Z,6.32
2023-09-13T18:40:06.161Z,5.43
2023-09-13T18:42:43.158Z,6.72
2023-09-13T18:45:14.091Z,8.13
2023-09-13T18:47:50.301Z,5.25
2023-09-13T18:50:21.118Z,6.10
2023-09-13T18:53:00.809Z,3.75
2023-09-13T18:55:33.920Z,4.40
2023-09-13T18:58:11.191Z,6.10
2023-09-13T19:00:44.108Z,6.45
2023-09-13T19:03:18.220Z,5.60
2023-09-13T19:06:13.200Z,5.20
2023-09-13T19:08:54.941Z,5.90
2023-09-13T19:11:25.683Z,5.68
2023-09-13T19:14:06.193Z,4.70
2023-09-13T19:16:44.918Z,6.47
2023-09-13T19:19:19.077Z,5.80
2023-09-13T19:21:56.271Z,7.97
2023-09-13T19:24:23.944Z,6.28
2023-09-13T19:26:58.112Z,4.10
2023-09-13T19:29:28.784Z,5.30
2023-09-13T19:32:03.181Z,5.30
2023-09-13T19:34:37.064Z,4.38
2023-09-13T19:37:11.212Z,7.22
2023-09-13T19:39:42.185Z,4.97
2023-09-13T19:42:17.177Z,6.97
2023-09-13T19:44:44.877Z,6.28
2023-09-13T19:47:19.058Z,4.85
2023-09-13T19:49:49.577Z,3.60
2023-09-13T19:55:27.208Z,5.75
2023-09-13T19:58:05.146Z,7.50
2023-09-13T20:00:48.821Z,5.57
2023-09-13T20:03:24.165Z,3.65
2023-09-13T20:05:59.905Z,4.32
2023-09-13T20:08:38.345Z,5.63
2023-09-13T20:11:05.959Z,4.07
2023-09-13T20:13:46.115Z,4.95
2023-09-13T20:16:13.376Z,5.85
2023-09-13T20:18:56.390Z,6.88
2023-09-13T20:21:26.659Z,8.20
2023-09-13T20:24:00.203Z,5.28
2023-09-13T20:26:27.734Z,6.65
2023-09-13T20:28:55.006Z,5.28
2023-09-13T20:31:36.144Z,9.02
2023-09-13T20:34:10.164Z,5.38
2023-09-13T20:36:46.606Z,10.52
2023-09-13T20:39:14.172Z,6.18
2023-09-13T20:41:51.234Z,5.63
2023-09-13T20:44:23.525Z,2.97
2023-09-13T20:46:57.290Z,5.10
2023-09-13T20:49:27.404Z,7.20
2023-09-13T20:52:04.189Z,5.90
2023-09-13T20:54:33.023Z,7.15
2023-09-13T20:57:07.328Z,3.80
2023-09-13T20:59:41.229Z,6.45
2023-09-13T21:02:15.333Z,3.42
2023-09-13T21:04:45.806Z,5.55
2023-09-13T21:07:25.982Z,5.70
2023-09-13T21:12:50.340Z,5.13
2023-09-13T21:15:18.056Z,6.90
2023-09-13T21:20:29.301Z,8.27
2023-09-13T21:22:56.590Z,5.05
2023-09-13T21:25:36.348Z,6.35
2023-09-13T21:28:04.869Z,5.47
2023-09-13T21:30:41.530Z,6.30
2023-09-13T21:33:09.320Z,6.35
2023-09-13T21:35:49.251Z,7.03
2023-09-13T21:38:16.944Z,8.32
2023-09-13T21:40:54.233Z,5.85
2023-09-13T21:43:25.142Z,6.20
2023-09-13T21:46:02.397Z,5.97
2023-09-13T21:48:32.994Z,8.68
2023-09-13T21:51:11.253Z,6.93
2023-09-13T21:53:44.200Z,6.82
2023-09-13T21:56:18.243Z,6.55
2023-09-13T21:58:52.128Z,6.75
2023-09-13T22:01:21.147Z,6.20
2023-09-13T22:03:55.301Z,5.32
2023-09-13T22:06:30.218Z,5.50
2023-09-13T22:11:45.550Z,6.72
2023-09-13T22:14:26.199Z,9.50
2023-09-13T22:16:53.559Z,6.78
2023-09-13T22:19:30.205Z,9.02
2023-09-13T22:21:57.688Z,3.45
2023-09-13T22:24:32.293Z,5.45
2023-09-13T22:26:59.756Z,6.88
2023-09-13T22:29:34.292Z,3.70
2023-09-13T22:32:02.469Z,3.65
2023-09-13T22:34:38.408Z,4.53
2023-09-13T22:37:13.287Z,5.57
2023-09-13T22:39:50.341Z,4.93
2023-09-13T22:42:23.133Z,4.93
2023-09-13T22:47:46.808Z,5.07
2023-09-13T22:50:21.442Z,4.35
2023-09-13T22:52:57.249Z,6.82
2023-09-13T22:55:30.203Z,6.03
2023-09-13T22:58:04.179Z,7.50
2023-09-13T23:00:44.059Z,6.15
2023-09-13T23:03:34.107Z,4.28
2023-09-13T23:06:14.289Z,8.68
2023-09-13T23:08:51.277Z,7.90
2023-09-13T23:11:25.308Z,5.65
2023-09-13T23:14:07.310Z,6.10
2023-09-13T23:16:51.294Z,5.22
2023-09-13T23:19:25.282Z,6.43
2023-09-13T23:22:08.466Z,7.25
2023-09-13T23:24:49.135Z,5.22
2023-09-13T23:27:23.140Z,6.00
2023-09-13T23:29:57.183Z,8.25
2023-09-13T23:32:26.131Z,4.55
2023-09-13T23:35:03.161Z,4.07
2023-09-13T23:37:30.516Z,5.70
2023-09-13T23:40:06.428Z,5.32
2023-09-13T23:42:33.868Z,7.32
2023-09-13T23:45:11.283Z,6.28
2023-09-13T23:47:38.836Z,5.95
2023-09-13T23:50:14.437Z,4.60
2023-09-13T23:52:52.235Z,5.72
2023-09-13T23:55:19.472Z,7.63
2023-09-13T23:57:55.203Z,6.97
